Date,TemperatureHighF,TemperatureAvgF,TemperatureLowF,DewpointHighF,DewpointAvgF,DewpointLowF,HumidityHigh,HumidityAvg,HumidityLow,PressureMaxIn,PressureMinIn,WindSpeedMaxMPH,WindSpeedAvgMPH,GustSpeedMaxMPH,PrecipitationSumIn
2013-6-1,100.0,82.1,64.9,77.2,70.7,64.7,99,73,38,29.60,29.47,11,2,11,0.07
2013-6-2,94.8,80.3,68.4,77.6,71.9,68.1,99,79,45,29.50,29.33,14,2,14,0.07
2013-6-3,85.5,70.5,60.1,73.6,65.4,49.7,99,85,55,29.50,29.39,14,2,14,0.30
2013-6-4,74.3,62.3,51.4,53.5,48.8,43.3,90,63,43,29.77,29.49,17,6,17,0.00
2013-6-5,81.3,63.2,46.0,56.4,51.7,45.8,99,70,38,29.86,29.74,13,2,13,0.00
2013-6-6,80.1,65.0,51.8,61.8,56.3,51.5,99,76,45,29.86,29.76,10,1,10,0.01
2013-6-7,57.9,54.7,52.0,56.6,54.4,51.7,99,99,93,29.78,29.51,9,2,9,1.82
2013-6-8,81.3,63.7,52.2,69.1,59.9,51.9,99,89,64,29.65,29.31,15,4,17,0.80
2013-6-9,83.7,68.1,53.8,64.1,59.9,53.3,99,78,46,29.82,29.65,16,3,16,0.00
2013-6-10,74.1,62.7,53.1,63.7,59.1,52.8,99,89,65,29.88,29.69,8,1,8,0.56
2013-6-11,63.7,58.0,54.5,61.4,57.4,54.2,99,98,89,29.69,29.25,11,2,11,0.74
2013-6-12,72.0,62.5,55.6,60.8,57.7,55.3,99,85,67,29.48,29.23,23,5,23,0.02
2013-6-13,71.6,58.9,50.7,62.9,56.7,50.5,99,93,68,29.48,29.37,4,0,4,0.46
2013-6-14,85.1,63.4,52.9,63.1,57.3,52.6,99,83,43,29.43,29.32,12,2,12,0.58
2013-6-15,82.2,69.1,58.8,57.4,53.4,47.0,91,60,30,29.59,29.43,15,5,15,0.00
2013-6-16,80.1,66.7,51.6,65.1,59.1,51.4,99,78,51,29.61,29.35,8,1,8,0.00
2013-6-17,89.6,69.6,55.4,69.9,63.3,55.1,99,83,48,29.56,29.42,16,2,16,0.14
2013-6-18,77.7,62.6,56.7,69.2,61.1,56.4,99,95,68,29.61,29.55,11,1,11,0.73
2013-6-19,82.8,65.9,52.9,64.3,56.4,50.3,99,76,37,29.81,29.58,11,2,11,0.01
2013-6-20,88.2,68.2,49.8,62.0,56.1,49.6,99,70,36,29.93,29.81,8,1,8,0.00
2013-6-21,93.0,72.5,54.9,69.1,61.3,54.6,99,73,33,29.91,29.83,11,2,11,0.00
2013-6-22,90.9,74.1,59.0,73.9,65.8,58.7,99,78,50,29.88,29.73,8,1,8,0.00
2013-6-23,95.7,79.2,64.6,79.6,70.8,63.1,97,77,54,29.80,29.60,9,1,9,0.00
2013-6-24,96.8,81.0,69.3,78.7,73.3,69.0,99,80,47,29.65,29.49,14,4,14,0.39
2013-6-25,96.3,79.6,68.2,80.4,73.0,67.9,99,82,52,29.56,29.36,14,2,14,0.70
2013-6-26,86.7,73.2,64.6,78.3,71.9,64.1,99,96,70,29.51,29.36,8,1,8,0.48
2013-6-27,70.5,64.9,60.8,70.3,64.6,60.5,99,99,98,29.54,29.43,6,1,6,0.18
2013-6-28,89.6,68.3,57.4,78.8,67.1,57.1,99,96,70,29.44,29.12,14,2,14,0.38
2013-6-29,90.0,77.6,70.0,76.8,72.6,69.5,99,86,59,29.36,29.16,14,2,14,0.00
2013-6-30,91.8,78.5,65.5,79.2,73.1,65.0,99,85,60,29.58,29.35,11,1,11,0.00